createdAt,value
2019-01-30T00:00:39.748Z,99.00
2019-01-30T00:03:12.065Z,98.90
2019-01-30T00:05:43.055Z,99.50
2019-01-30T00:08:13.360Z,99.60
2019-01-30T00:10:43.799Z,99.70
2019-01-30T00:13:14.462Z,99.70
2019-01-30T00:15:45.178Z,99.60
2019-01-30T00:18:15.656Z,99.60
2019-01-30T00:20:46.320Z,99.70
2019-01-30T00:23:16.793Z,99.80
2019-01-30T00:25:48.325Z,99.90
2019-01-30T00:28:18.929Z,99.90
2019-01-30T00:30:50.416Z,99.90
2019-01-30T00:33:20.846Z,99.90
2019-01-30T00:35:51.102Z,99.90
2019-01-30T00:38:21.439Z,99.90
2019-01-30T00:40:51.792Z,99.70
2019-01-30T00:43:22.104Z,99.90
2019-01-30T00:45:52.376Z,99.90
2019-01-30T00:48:22.720Z,99.60
2019-01-30T00:50:54.129Z,99.30
2019-01-30T00:53:24.634Z,98.60
2019-01-30T00:55:54.901Z,98.10
2019-01-30T00:58:25.494Z,98.20
2019-01-30T01:00:56.088Z,98.30
2019-01-30T01:03:26.356Z,98.50
2019-01-30T01:05:56.840Z,98.70
2019-01-30T01:08:27.080Z,98.90
2019-01-30T01:10:57.489Z,99.30
2019-01-30T01:13:28.116Z,99.30
2019-01-30T01:15:58.690Z,99.40
2019-01-30T01:18:29.071Z,99.40
2019-01-30T01:20:59.539Z,99.60
2019-01-30T01:23:29.838Z,99.80
2019-01-30T01:26:00.233Z,99.90
2019-01-30T01:28:30.653Z,99.90
2019-01-30T01:31:01.197Z,99.90
2019-01-30T01:33:31.462Z,99.90
2019-01-30T01:36:02.017Z,99.90
2019-01-30T01:38:32.479Z,99.90
2019-01-30T01:41:04.096Z,99.90
2019-01-30T01:43:34.760Z,99.80
2019-01-30T01:46:05.275Z,99.90
2019-01-30T01:48:35.680Z,99.90
2019-01-30T01:51:06.359Z,99.90
2019-01-30T01:53:37.416Z,99.90
2019-01-30T01:56:07.720Z,99.90
2019-01-30T01:58:37.905Z,99.90
2019-01-30T02:01:08.374Z,99.80
2019-01-30T02:03:38.701Z,99.80
2019-01-30T02:06:09.321Z,99.80
2019-01-30T02:08:39.755Z,99.60
2019-01-30T02:11:10.153Z,99.40
2019-01-30T02:13:40.542Z,99.40
2019-01-30T02:16:10.901Z,99.40
2019-01-30T02:18:41.371Z,99.00
2019-01-30T02:21:11.720Z,99.10
2019-01-30T02:23:42.198Z,99.30
2019-01-30T02:26:12.631Z,99.60
2019-01-30T02:28:42.916Z,99.60
2019-01-30T02:31:13.396Z,99.70
2019-01-30T02:33:43.944Z,99.90
2019-01-30T02:36:14.239Z,99.90
2019-01-30T02:38:44.529Z,99.90
2019-01-30T02:41:14.919Z,99.90
2019-01-30T02:43:45.344Z,99.90
2019-01-30T02:46:15.801Z,99.90
2019-01-30T02:48:46.378Z,99.90
2019-01-30T02:51:16.732Z,99.90
2019-01-30T02:53:47.206Z,99.90
2019-01-30T02:56:17.486Z,99.90
2019-01-30T02:58:47.740Z,99.80
2019-01-30T03:01:18.153Z,99.90
2019-01-30T03:03:48.416Z,99.70
2019-01-30T03:06:18.918Z,99.70
2019-01-30T03:08:49.246Z,99.70
2019-01-30T03:11:19.698Z,99.50
2019-01-30T03:13:50.274Z,99.40
2019-01-30T03:16:20.512Z,99.20
2019-01-30T03:18:51.014Z,99.20
2019-01-30T03:21:21.298Z,98.90
2019-01-30T03:23:51.600Z,98.50
2019-01-30T03:26:22.246Z,98.40
2019-01-30T03:28:52.609Z,98.60
2019-01-30T03:31:22.935Z,98.00
2019-01-30T03:33:53.467Z,98.10
2019-01-30T03:36:23.804Z,97.70
2019-01-30T03:38:54.346Z,97.70
2019-01-30T03:41:24.727Z,97.70
2019-01-30T03:43:55.294Z,97.70
2019-01-30T03:46:25.586Z,97.60
2019-01-30T03:48:56.326Z,97.70
2019-01-30T03:51:26.599Z,97.80
2019-01-30T03:53:57.198Z,97.80
2019-01-30T03:56:27.425Z,97.90
2019-01-30T03:58:58.169Z,97.90
2019-01-30T04:01:28.565Z,98.00
2019-01-30T04:03:59.278Z,98.00
2019-01-30T04:06:29.617Z,98.00
2019-01-30T04:09:00.070Z,98.00
2019-01-30T04:11:30.634Z,98.00
2019-01-30T04:14:00.944Z,98.00
2019-01-30T04:16:31.342Z,98.00
2019-01-30T04:19:01.731Z,97.50
2019-01-30T04:21:32.133Z,98.10
2019-01-30T04:24:02.410Z,98.10
2019-01-30T04:26:33.258Z,98.20
2019-01-30T04:29:03.504Z,98.10
2019-01-30T04:31:38.369Z,98.10
2019-01-30T04:34:06.721Z,98.10
2019-01-30T04:36:37.104Z,98.00
2019-01-30T04:39:09.236Z,98.10
2019-01-30T04:41:39.558Z,98.20
2019-01-30T04:44:09.902Z,98.20
2019-01-30T04:46:40.663Z,98.20
2019-01-30T04:49:11.067Z,98.10
2019-01-30T04:51:41.770Z,97.90
2019-01-30T04:54:12.398Z,97.80
2019-01-30T04:56:43.125Z,97.70
2019-01-30T04:59:13.754Z,97.70
2019-01-30T05:01:49.644Z,97.60
2019-01-30T05:04:16.779Z,97.70
2019-01-30T05:06:48.564Z,97.50
2019-01-30T05:09:19.471Z,97.50
2019-01-30T05:11:50.023Z,97.50
2019-01-30T05:14:20.628Z,97.60
2019-01-30T05:16:51.168Z,97.70
2019-01-30T05:19:21.752Z,97.70
2019-01-30T05:21:52.116Z,97.70
2019-01-30T05:24:22.689Z,97.60
2019-01-30T05:26:53.136Z,97.50
2019-01-30T05:29:23.499Z,97.50
2019-01-30T05:32:00.828Z,97.30
2019-01-30T05:34:26.009Z,97.30
2019-01-30T05:36:56.267Z,97.30
2019-01-30T05:39:26.688Z,97.30
2019-01-30T05:41:57.139Z,97.20
2019-01-30T05:44:27.837Z,97.30
2019-01-30T05:46:58.128Z,97.20
2019-01-30T05:49:29.247Z,97.10
2019-01-30T05:51:59.898Z,97.10
2019-01-30T05:54:30.335Z,97.00
2019-01-30T05:57:00.633Z,96.90
2019-01-30T05:59:31.049Z,96.50
2019-01-30T06:02:11.480Z,96.10
2019-01-30T06:04:33.539Z,95.90
2019-01-30T06:07:04.064Z,95.80
2019-01-30T06:09:34.621Z,95.70
2019-01-30T06:12:05.902Z,95.70
2019-01-30T06:14:36.401Z,95.70
2019-01-30T06:17:09.605Z,95.50
2019-01-30T06:19:39.928Z,95.50
2019-01-30T06:22:10.538Z,95.90
2019-01-30T06:24:41.108Z,95.30
2019-01-30T06:27:11.501Z,95.10
2019-01-30T06:29:42.167Z,94.80
2019-01-30T06:32:21.495Z,94.80
2019-01-30T06:34:44.958Z,94.90
2019-01-30T06:37:18.147Z,94.80
2019-01-30T06:39:47.539Z,94.80
2019-01-30T06:42:17.994Z,94.70
2019-01-30T06:44:49.933Z,94.50
2019-01-30T06:47:20.542Z,94.50
2019-01-30T06:49:50.993Z,94.50
2019-01-30T06:52:21.368Z,94.40
2019-01-30T06:54:51.791Z,94.40
2019-01-30T06:57:22.401Z,94.20
2019-01-30T06:59:52.913Z,93.80
2019-01-30T07:02:32.117Z,93.90
2019-01-30T07:04:55.638Z,93.60
2019-01-30T07:07:26.101Z,93.50
2019-01-30T07:09:56.567Z,93.40
2019-01-30T07:12:26.859Z,93.40
2019-01-30T07:14:57.213Z,93.00
2019-01-30T07:17:27.776Z,92.90
2019-01-30T07:19:58.172Z,92.60
2019-01-30T07:22:28.702Z,92.60
2019-01-30T07:24:59.337Z,92.30
2019-01-30T07:27:29.672Z,92.00
2019-01-30T07:30:00.218Z,91.90
2019-01-30T07:32:30.618Z,91.90
2019-01-30T07:35:00.900Z,91.80
2019-01-30T07:37:31.910Z,91.60
2019-01-30T07:40:02.175Z,91.80
2019-01-30T07:42:32.715Z,92.00
2019-01-30T07:45:04.963Z,91.90
2019-01-30T07:47:35.636Z,92.00
2019-01-30T07:50:07.123Z,91.60
2019-01-30T07:52:37.547Z,91.20
2019-01-30T07:55:12.545Z,91.30
2019-01-30T07:57:43.162Z,91.20
2019-01-30T08:00:33.349Z,90.80
2019-01-30T08:03:03.907Z,90.70
2019-01-30T08:05:34.472Z,90.50
2019-01-30T08:08:05.480Z,90.40
2019-01-30T08:10:36.368Z,90.30
2019-01-30T08:13:07.319Z,90.10
2019-01-30T08:15:37.755Z,89.90
2019-01-30T08:18:08.127Z,89.50
2019-01-30T08:20:38.949Z,89.30
2019-01-30T08:23:09.729Z,89.70
2019-01-30T08:25:40.801Z,88.50
2019-01-30T08:28:11.958Z,88.50
2019-01-30T08:30:42.671Z,87.90
2019-01-30T08:33:13.432Z,88.90
2019-01-30T08:35:43.891Z,88.20
2019-01-30T08:38:14.399Z,88.40
2019-01-30T08:40:44.930Z,88.10
2019-01-30T08:43:16.207Z,87.90
2019-01-30T08:45:46.753Z,88.00
2019-01-30T08:48:17.558Z,87.50
2019-01-30T08:50:48.252Z,86.40
2019-01-30T08:53:18.731Z,86.40
2019-01-30T08:55:49.093Z,87.00
2019-01-30T08:58:19.671Z,86.10
2019-01-30T09:00:50.267Z,86.20
2019-01-30T09:03:20.936Z,85.80
2019-01-30T09:05:51.854Z,85.90
2019-01-30T09:08:22.446Z,86.30
2019-01-30T09:10:53.019Z,86.20
2019-01-30T09:13:25.630Z,86.30
2019-01-30T09:15:56.098Z,85.70
2019-01-30T09:18:26.771Z,85.30
2019-01-30T09:20:57.541Z,84.50
2019-01-30T09:23:28.327Z,84.40
2019-01-30T09:25:58.717Z,84.40
2019-01-30T09:28:29.213Z,84.40
2019-01-30T09:30:59.772Z,84.80
2019-01-30T09:33:30.291Z,85.00
2019-01-30T09:36:01.547Z,84.90
2019-01-30T09:38:32.000Z,84.90
2019-01-30T09:41:02.488Z,84.80
2019-01-30T09:43:33.326Z,84.20
2019-01-30T09:46:03.673Z,84.40
2019-01-30T09:48:36.771Z,84.40
2019-01-30T09:51:06.305Z,84.00
2019-01-30T09:53:36.768Z,83.70
2019-01-30T09:56:06.973Z,83.70
2019-01-30T09:58:37.541Z,84.20
2019-01-30T10:01:07.951Z,83.80
2019-01-30T10:03:38.433Z,83.60
2019-01-30T10:06:09.173Z,83.50
2019-01-30T10:08:39.722Z,83.80
2019-01-30T10:11:10.381Z,83.70
2019-01-30T10:13:40.711Z,83.70
2019-01-30T10:16:11.466Z,84.00
2019-01-30T10:18:41.785Z,83.00
2019-01-30T10:21:12.240Z,82.80
2019-01-30T10:23:42.924Z,83.60
2019-01-30T10:26:13.245Z,84.10
2019-01-30T10:28:43.650Z,83.00
2019-01-30T10:31:13.947Z,82.40
2019-01-30T10:33:46.595Z,82.60
2019-01-30T10:36:18.218Z,82.30
2019-01-30T10:38:48.813Z,81.90
2019-01-30T10:41:19.354Z,82.00
2019-01-30T10:43:50.579Z,81.80
2019-01-30T10:46:21.180Z,82.40
2019-01-30T10:48:51.709Z,81.70
2019-01-30T10:51:22.049Z,81.60
2019-01-30T10:53:52.551Z,80.90
2019-01-30T10:56:22.938Z,81.10
2019-01-30T10:58:53.570Z,81.40
2019-01-30T11:01:23.935Z,81.40
2019-01-30T11:03:57.357Z,81.30
2019-01-30T11:06:26.430Z,81.00
2019-01-30T11:08:57.107Z,81.40
2019-01-30T11:11:27.723Z,81.60
2019-01-30T11:13:58.001Z,81.70
2019-01-30T11:16:28.602Z,81.00
2019-01-30T11:18:59.105Z,81.10
2019-01-30T11:21:30.145Z,80.20
2019-01-30T11:24:00.745Z,79.70
2019-01-30T11:26:31.285Z,80.60
2019-01-30T11:29:01.897Z,79.10
2019-01-30T11:31:32.603Z,79.10
2019-01-30T11:34:07.655Z,78.90
2019-01-30T11:36:35.640Z,78.20
2019-01-30T11:39:07.750Z,78.50
2019-01-30T11:41:38.585Z,78.20
2019-01-30T11:44:09.094Z,77.50
2019-01-30T11:46:39.705Z,76.80
2019-01-30T11:49:11.455Z,76.10
2019-01-30T11:51:42.069Z,76.80
2019-01-30T11:54:12.749Z,76.10
2019-01-30T11:56:43.246Z,76.30
2019-01-30T11:59:13.810Z,76.50
2019-01-30T12:01:44.467Z,77.10
2019-01-30T12:04:18.006Z,76.00
2019-01-30T12:06:47.390Z,74.70
2019-01-30T12:09:17.981Z,75.30
2019-01-30T12:11:49.556Z,75.30
2019-01-30T12:14:20.228Z,75.20
2019-01-30T12:16:51.260Z,75.60
2019-01-30T12:19:21.709Z,76.20
2019-01-30T12:21:52.160Z,75.50
2019-01-30T12:24:22.627Z,75.50
2019-01-30T12:26:53.111Z,75.70
2019-01-30T12:29:23.554Z,76.00
2019-01-30T12:31:53.955Z,76.10
2019-01-30T12:34:28.356Z,77.20
2019-01-30T12:36:56.262Z,76.20
2019-01-30T12:39:26.625Z,75.70
2019-01-30T12:41:56.969Z,75.20
2019-01-30T12:44:27.437Z,74.90
2019-01-30T12:46:57.961Z,76.20
2019-01-30T12:49:28.415Z,76.20
2019-01-30T12:51:59.046Z,76.10
2019-01-30T12:54:29.762Z,76.00
2019-01-30T12:57:00.583Z,75.50
2019-01-30T12:59:31.149Z,74.40
2019-01-30T13:02:02.084Z,74.60
2019-01-30T13:04:38.655Z,74.10
2019-01-30T13:07:04.428Z,73.00
2019-01-30T13:09:34.699Z,73.20
2019-01-30T13:12:05.159Z,73.00
2019-01-30T13:14:35.586Z,73.10
2019-01-30T13:17:05.904Z,73.00
2019-01-30T13:19:36.224Z,73.00
2019-01-30T13:22:06.600Z,73.10
2019-01-30T13:24:38.466Z,72.00
2019-01-30T13:27:09.274Z,72.10
2019-01-30T13:29:39.748Z,71.80
2019-01-30T13:32:09.423Z,72.30
2019-01-30T13:34:48.831Z,72.20
2019-01-30T13:37:11.932Z,73.00
2019-01-30T13:39:42.408Z,73.20
2019-01-30T13:42:12.892Z,72.50
2019-01-30T13:44:43.226Z,72.60
2019-01-30T13:47:13.590Z,72.90
2019-01-30T13:49:43.900Z,72.80
2019-01-30T13:52:14.262Z,73.50
2019-01-30T13:54:44.803Z,73.60
2019-01-30T13:57:15.094Z,72.90
2019-01-30T13:59:45.434Z,72.90
2019-01-30T14:02:16.027Z,72.80
2019-01-30T14:04:47.398Z,72.50
2019-01-30T14:07:18.196Z,72.20
2019-01-30T14:09:48.542Z,72.50
2019-01-30T14:12:18.788Z,72.50
2019-01-30T14:14:49.338Z,72.50
2019-01-30T14:17:19.921Z,73.10
2019-01-30T14:19:50.407Z,73.00
2019-01-30T14:22:20.898Z,73.40
2019-01-30T14:24:53.215Z,73.70
2019-01-30T14:27:23.725Z,74.00
2019-01-30T14:29:58.270Z,74.80
2019-01-30T14:32:26.652Z,75.00
2019-01-30T14:34:57.260Z,75.20
2019-01-30T14:37:27.682Z,75.60
2019-01-30T14:39:58.166Z,75.80
2019-01-30T14:42:28.767Z,76.20
2019-01-30T14:44:59.364Z,76.20
2019-01-30T14:47:30.032Z,76.50
2019-01-30T14:50:00.876Z,77.00
2019-01-30T14:52:31.904Z,78.10
2019-01-30T14:55:02.284Z,79.00
2019-01-30T14:57:32.759Z,79.60
2019-01-30T15:00:03.382Z,80.10
2019-01-30T15:02:34.880Z,80.70
2019-01-30T15:05:07.141Z,81.20
2019-01-30T15:07:37.832Z,81.80
2019-01-30T15:10:10.101Z,83.10
2019-01-30T15:12:40.872Z,83.00
2019-01-30T15:15:13.570Z,84.60
2019-01-30T15:17:44.467Z,84.20
2019-01-30T15:20:17.586Z,84.60
2019-01-30T15:22:49.320Z,85.20
2019-01-30T15:25:23.760Z,85.60
2019-01-30T15:27:54.410Z,86.40
2019-01-30T15:30:27.328Z,86.40
2019-01-30T15:32:57.760Z,87.00
2019-01-30T15:35:33.693Z,87.20
2019-01-30T15:38:01.539Z,88.00
2019-01-30T15:40:33.033Z,88.10
2019-01-30T15:43:03.613Z,88.80
2019-01-30T15:45:34.470Z,89.20
2019-01-30T15:48:05.263Z,89.60
2019-01-30T15:50:36.498Z,90.00
2019-01-30T15:53:10.011Z,90.20
2019-01-30T15:55:40.757Z,90.40
2019-01-30T15:58:12.353Z,90.50
2019-01-30T16:00:55.081Z,90.60
2019-01-30T16:03:25.526Z,90.60
2019-01-30T16:05:56.589Z,90.90
2019-01-30T16:08:27.168Z,91.00
2019-01-30T16:10:57.855Z,91.20
2019-01-30T16:13:28.506Z,91.10
2019-01-30T16:16:01.262Z,91.40
2019-01-30T16:18:32.042Z,91.00
2019-01-30T16:21:02.586Z,90.60
2019-01-30T16:23:32.939Z,90.60
2019-01-30T16:26:03.334Z,90.60
2019-01-30T16:28:34.174Z,90.60
2019-01-30T16:31:05.067Z,90.30
2019-01-30T16:33:35.384Z,90.30
2019-01-30T16:36:06.270Z,90.50
2019-01-30T16:38:36.727Z,90.50
2019-01-30T16:41:07.563Z,90.80
2019-01-30T16:43:38.331Z,91.20
2019-01-30T16:46:09.010Z,91.20
2019-01-30T16:48:39.691Z,91.50
2019-01-30T16:51:10.107Z,91.50
2019-01-30T16:53:40.619Z,92.40
2019-01-30T16:56:11.179Z,92.30
2019-01-30T16:58:41.829Z,92.40
2019-01-30T17:01:12.851Z,92.70
2019-01-30T17:03:43.104Z,92.80
2019-01-30T17:06:13.565Z,93.30
2019-01-30T17:08:44.165Z,93.60
2019-01-30T17:11:14.824Z,93.70
2019-01-30T17:13:45.392Z,93.80
2019-01-30T17:16:16.134Z,93.80
2019-01-30T17:18:47.829Z,94.00
2019-01-30T17:21:18.468Z,93.90
2019-01-30T17:23:48.968Z,93.90
2019-01-30T17:26:19.892Z,94.00
2019-01-30T17:28:50.265Z,94.20
2019-01-30T17:31:30.772Z,94.20
2019-01-30T17:34:01.154Z,94.20
2019-01-30T17:36:31.486Z,94.20
2019-01-30T17:39:01.782Z,94.50
2019-01-30T17:41:33.848Z,94.80
2019-01-30T17:44:04.521Z,95.00
2019-01-30T17:46:34.827Z,95.30
2019-01-30T17:49:05.343Z,95.50
2019-01-30T17:51:35.764Z,95.50
2019-01-30T17:54:06.230Z,95.50
2019-01-30T17:56:36.757Z,95.90
2019-01-30T17:59:07.181Z,96.10
2019-01-30T18:01:37.974Z,96.30
2019-01-30T18:04:09.397Z,96.30
2019-01-30T18:06:39.824Z,96.30
2019-01-30T18:09:11.106Z,96.50
2019-01-30T18:11:41.791Z,96.80
2019-01-30T18:14:12.123Z,96.70
2019-01-30T18:16:42.581Z,96.70
2019-01-30T18:19:13.000Z,96.60
2019-01-30T18:21:43.397Z,96.60
2019-01-30T18:24:13.762Z,96.60
2019-01-30T18:26:45.040Z,96.50
2019-01-30T18:29:15.364Z,96.60
2019-01-30T18:31:45.834Z,97.00
2019-01-30T18:34:17.267Z,97.30
2019-01-30T18:36:49.310Z,97.30
2019-01-30T18:39:19.830Z,97.80
2019-01-30T18:41:51.111Z,97.60
2019-01-30T18:44:21.783Z,97.80
2019-01-30T18:46:52.422Z,98.00
2019-01-30T18:49:23.144Z,98.10
2019-01-30T18:51:54.230Z,98.20
2019-01-30T18:54:24.841Z,98.40
2019-01-30T18:56:55.743Z,98.70
2019-01-30T18:59:26.250Z,98.90
2019-01-30T19:01:56.682Z,99.00
2019-01-30T19:04:27.589Z,99.10
2019-01-30T19:06:58.042Z,99.20
2019-01-30T19:09:28.504Z,99.30
2019-01-30T19:11:58.958Z,99.50
2019-01-30T19:14:30.176Z,99.70
2019-01-30T19:17:00.842Z,99.60
2019-01-30T19:19:31.364Z,99.90
2019-01-30T19:22:01.657Z,99.80
2019-01-30T19:24:32.009Z,99.90
2019-01-30T19:27:02.434Z,99.90
2019-01-30T19:29:33.080Z,99.90
2019-01-30T19:32:03.447Z,99.90
2019-01-30T19:34:34.011Z,99.90
2019-01-30T19:37:04.792Z,99.90
2019-01-30T19:39:35.206Z,99.90
2019-01-30T19:42:05.708Z,99.90
2019-01-30T19:44:36.308Z,99.90
2019-01-30T19:47:06.752Z,99.90
2019-01-30T19:49:37.781Z,99.90
2019-01-30T19:52:08.152Z,99.90
2019-01-30T19:54:38.536Z,99.90
2019-01-30T19:57:08.938Z,99.90
2019-01-30T19:59:39.884Z,99.90
2019-01-30T20:02:10.331Z,99.90
2019-01-30T20:04:40.658Z,99.90
2019-01-30T20:07:14.833Z,99.90
2019-01-30T20:09:44.940Z,99.90
2019-01-30T20:12:15.905Z,99.90
2019-01-30T20:14:46.486Z,99.90
2019-01-30T20:17:17.142Z,99.90
2019-01-30T20:19:47.787Z,99.90
2019-01-30T20:22:18.282Z,99.90
2019-01-30T20:24:50.045Z,99.90
2019-01-30T20:27:20.569Z,99.90
2019-01-30T20:29:51.262Z,99.90
2019-01-30T20:32:21.874Z,99.90
2019-01-30T20:34:52.784Z,99.90
2019-01-30T20:37:26.269Z,99.90
2019-01-30T20:39:56.362Z,99.90
2019-01-30T20:42:26.711Z,99.90
2019-01-30T20:44:57.462Z,99.90
2019-01-30T20:47:28.117Z,99.90
2019-01-30T20:49:59.741Z,99.90
2019-01-30T20:52:30.142Z,99.90
2019-01-30T20:55:00.848Z,99.90
2019-01-30T20:57:32.423Z,99.90
2019-01-30T21:00:03.449Z,99.90
2019-01-30T21:02:34.458Z,99.90
2019-01-30T21:05:05.252Z,99.90
2019-01-30T21:07:37.294Z,99.90
2019-01-30T21:10:12.162Z,99.90
2019-01-30T21:12:42.988Z,99.90
2019-01-30T21:15:14.171Z,99.90
2019-01-30T21:17:45.435Z,99.90
2019-01-30T21:20:16.503Z,99.90
2019-01-30T21:22:47.049Z,99.90
2019-01-30T21:25:19.320Z,99.90
2019-01-30T21:27:49.928Z,99.90
2019-01-30T21:30:32.460Z,99.90
2019-01-30T21:33:03.038Z,99.90
2019-01-30T21:35:33.469Z,99.90
2019-01-30T21:38:03.837Z,99.90
2019-01-30T21:40:34.653Z,99.90
2019-01-30T21:43:05.460Z,99.90
2019-01-30T21:45:36.698Z,99.90
2019-01-30T21:48:07.477Z,99.90
2019-01-30T21:50:38.131Z,99.90
2019-01-30T21:53:08.704Z,99.90
2019-01-30T21:55:39.331Z,99.90
2019-01-30T21:58:10.519Z,99.90
2019-01-30T22:00:41.118Z,99.90
2019-01-30T22:03:11.987Z,99.90
2019-01-30T22:05:42.494Z,99.90
2019-01-30T22:08:13.974Z,99.90
2019-01-30T22:10:45.871Z,99.90
2019-01-30T22:13:17.024Z,99.90
2019-01-30T22:15:48.122Z,99.90
2019-01-30T22:18:19.158Z,99.90
2019-01-30T22:20:49.859Z,99.90
2019-01-30T22:23:20.569Z,99.90
2019-01-30T22:25:51.077Z,99.90
2019-01-30T22:28:21.894Z,99.90
2019-01-30T22:30:52.387Z,99.90
2019-01-30T22:33:23.066Z,99.90
2019-01-30T22:35:53.487Z,99.90
2019-01-30T22:38:23.805Z,99.90
2019-01-30T22:40:54.245Z,99.90
2019-01-30T22:43:24.619Z,99.90
2019-01-30T22:45:56.859Z,99.90
2019-01-30T22:48:27.549Z,99.90
2019-01-30T22:50:58.144Z,99.90
2019-01-30T22:53:28.586Z,99.90
2019-01-30T22:55:58.898Z,99.90
2019-01-30T22:58:29.366Z,99.90
2019-01-30T23:01:23.344Z,99.90
2019-01-30T23:05:08.359Z,99.90
2019-01-30T23:07:52.295Z,99.90
2019-01-30T23:10:49.328Z,99.90
2019-01-30T23:13:40.171Z,99.90
2019-01-30T23:16:47.347Z,99.90
2019-01-30T23:19:42.069Z,99.90
2019-01-30T23:22:50.010Z,99.90
2019-01-30T23:25:57.305Z,99.90
2019-01-30T23:28:57.901Z,99.90
2019-01-30T23:31:58.558Z,99.90
2019-01-30T23:34:55.844Z,99.90
2019-01-30T23:37:54.969Z,99.90
2019-01-30T23:40:35.542Z,99.90
2019-01-30T23:43:45.743Z,99.90
2019-01-30T23:46:56.692Z,99.90
2019-01-30T23:49:50.304Z,99.90
2019-01-30T23:52:43.332Z,99.90
2019-01-30T23:55:23.782Z,99.90
2019-01-30T23:58:10.337Z,99.90
